Monte — V2FS2 — position and weather

sailwx.info

Track history (hours):
 
Tides and Currents Weather Stations Pressure Air Temp Water Temp Dewpoint Dewpoint Depression Visibility Wind Speed Wind Dir Waves Ship Positions

Monte

Last reported at 2017-Jan-22 03:14 UTC. Time now 2017-Jan-24 05:10 UTC.
Position N 54°41' E 020°14'.

Length 104 m; draft 4 m.

Type: Cargo ship. MMSI: 305777000.

Date/timePositionNaut miles runAvg speedWind from/ knotsBaromVisibWave heightAir tempDewpointWater temp
2017-Jan-22 03:14N 54°41' E 020°14'6 8.2
2017-Jan-22 02:33N 54°39' E 020°05'8 8.4
2017-Jan-22 01:33N 54°39' E 019°51'4 4.1
2017-Jan-22 00:33N 54°40' E 019°44'2 2.1
2017-Jan-21 23:33N 54°42' E 019°42'1010.2
2017-Jan-21 22:33N 54°46' E 019°26'1111.1
2017-Jan-21 21:33N 54°49' E 019°07'1110.8
2017-Jan-21 20:33N 54°53' E 018°49'1111.0
2017-Jan-21 19:33N 54°55' E 018°31'1111.3
2017-Jan-21 18:33N 54°54' E 018°11'17910.5
2017-Jan-21 01:31N 54°45' E 013°00'1010.3
2017-Jan-21 00:33N 54°45' E 012°43'2210.3
2017-Jan-20 22:22N 54°29' E 012°16'8 9.6
2017-Jan-20 21:32N 54°24' E 012°05'29 9.6
2017-Jan-20 18:27N 54°05' E 011°26'7 8.3
2017-Jan-20 17:33N 53°58' E 011°22'5 4.9
2017-Jan-20 16:32N 53°54' E 011°27'0 0.0
2017-Jan-20 15:32N 53°54' E 011°27'0 0.0
2017-Jan-20 14:32N 53°54' E 011°27'0 0.0
2017-Jan-20 13:32N 53°54' E 011°27'0 0.0
2017-Jan-20 12:32N 53°54' E 011°27'0 0.0
2017-Jan-20 11:32N 53°54' E 011°27'0 0.0
2017-Jan-20 10:32N 53°54' E 011°27'0 0.0
2017-Jan-20 09:32N 53°54' E 011°27'0 0.0
2017-Jan-20 08:32N 53°54' E 011°27'0 0.0
2017-Jan-20 07:32N 53°54' E 011°27'0 0.0
2017-Jan-20 06:32N 53°54' E 011°27'0 0.0
2017-Jan-20 05:31N 53°54' E 011°27'0 0.0
2017-Jan-20 04:31N 53°54' E 011°27'0 0.0
2017-Jan-20 03:31N 53°54' E 011°27'0 0.0
2017-Jan-20 02:31N 53°54' E 011°27'0 0.0
2017-Jan-20 01:31N 53°54' E 011°27'0 0.0
2017-Jan-20 00:31N 53°54' E 011°27'0 0.0
2017-Jan-19 23:31N 53°54' E 011°27'0 0.0
2017-Jan-19 22:31N 53°54' E 011°27'0 0.0
2017-Jan-19 21:31N 53°54' E 011°27'0 0.0
2017-Jan-19 20:31N 53°54' E 011°27'0 0.0
2017-Jan-19 19:31N 53°54' E 011°27'0 0.0
2017-Jan-19 18:31N 53°54' E 011°27'0 0.0
2017-Jan-19 17:31N 53°54' E 011°27'0 0.0
2017-Jan-19 16:31N 53°54' E 011°27'0 0.0
2017-Jan-19 15:31N 53°54' E 011°27'0 0.0
2017-Jan-19 14:31N 53°54' E 011°27'0 0.0
2017-Jan-19 13:31N 53°54' E 011°27'0 0.0
2017-Jan-19 12:31N 53°54' E 011°27'0 0.0
2017-Jan-19 11:31N 53°54' E 011°27'0 0.0
2017-Jan-19 10:31N 53°54' E 011°27'0 0.0
2017-Jan-19 09:31N 53°54' E 011°27'0 0.0
2017-Jan-19 08:31N 53°54' E 011°27'0 0.0
2017-Jan-19 07:31N 53°54' E 011°27'0 0.4
2017-Jan-19 06:33N 53°54' E 011°27'7 7.5
2017-Jan-19 05:33N 54°01' E 011°21'7 7.3
2017-Jan-19 04:33N 54°08' E 011°25'7 6.6
2017-Jan-19 03:33N 54°14' E 011°30'8 7.6
2017-Jan-19 02:34N 54°19' E 011°41'9 8.5
2017-Jan-19 01:33N 54°23' E 011°53'7 6.9
2017-Jan-19 00:33N 54°26' E 012°04'7 7.5
2017-Jan-18 23:34N 54°31' E 012°12'8 8.2
2017-Jan-18 22:33N 54°38' E 012°20'86 8.5
2017-Jan-18 12:26N 54°39' E 014°48'129 9.3
2017-Jan-17 22:33N 54°58' E 018°29'10 9.2
2017-Jan-17 21:30N 54°57' E 018°46'9 9.6
2017-Jan-17 20:33N 54°53' E 018°60'11 9.6
2017-Jan-17 19:24N 54°49' E 019°18'8 9.5
2017-Jan-17 18:32N 54°46' E 019°31'  
2017-Jan-14 11:13N 54°39' E 019°50'2 0.3
2017-Jan-14 05:29N 54°39' E 019°47'7 7.0
2017-Jan-14 04:33N 54°43' E 019°40'8 7.6
2017-Jan-14 03:33N 54°46' E 019°27'31 7.9
2017-Jan-13 23:33N 54°55' E 018°35'8 8.0
2017-Jan-13 22:33N 54°55' E 018°21'8 7.9
2017-Jan-13 21:33N 54°54' E 018°07'183 8.7
2017-Jan-13 00:33N 54°45' E 012°49'1410.3
2017-Jan-12 23:10N 54°37' E 012°28'710.7
2017-Jan-12 22:32N 54°33' E 012°19'1010.2
2017-Jan-12 21:33N 54°25' E 012°09'1610.7
2017-Jan-12 20:03N 54°26' E 011°41'1711.4
2017-Jan-12 18:33N 54°34' E 011°15'1211.7
2017-Jan-12 17:31N 54°34' E 010°54'1010.8
2017-Jan-12 16:33N 54°33' E 010°36'47 7.5
2017-Jan-12 10:22N 54°10' E 009°27'6 7.5
2017-Jan-12 09:32N 54°06' E 009°20'3 3.2
2017-Jan-12 08:33N 54°03' E 009°18'5 5.4
2017-Jan-12 07:33N 53°58' E 009°15'5 5.4
2017-Jan-12 06:33N 53°54' E 009°09'1 0.7
2017-Jan-12 05:33N 53°53' E 009°09'0 0.0
2017-Jan-12 04:31N 53°53' E 009°09'0 0.1
2017-Jan-12 03:31N 53°53' E 009°10'  
Track history (hours):
 
Tides and Currents Weather Stations Pressure Air Temp Water Temp Dewpoint Dewpoint Depression Visibility Wind Speed Wind Dir Waves Ship Positions

Monte

Last reported at 2017-Jan-22 03:14 UTC. Time now 2017-Jan-24 05:10 UTC.
Position N 54°41' E 020°14'.

Length 104 m; draft 4 m.

Type: Cargo ship. MMSI: 305777000.

Date/timePositionNaut miles runAvg speedWind from/ knotsBaromVisibWave heightAir tempDewpointWater temp
2017-Jan-22 03:14N 54°41' E 020°14'6 8.2
2017-Jan-22 02:33N 54°39' E 020°05'8 8.4
2017-Jan-22 01:33N 54°39' E 019°51'4 4.1
2017-Jan-22 00:33N 54°40' E 019°44'2 2.1
2017-Jan-21 23:33N 54°42' E 019°42'1010.2
2017-Jan-21 22:33N 54°46' E 019°26'1111.1
2017-Jan-21 21:33N 54°49' E 019°07'1110.8
2017-Jan-21 20:33N 54°53' E 018°49'1111.0
2017-Jan-21 19:33N 54°55' E 018°31'1111.3
2017-Jan-21 18:33N 54°54' E 018°11'17910.5
2017-Jan-21 01:31N 54°45' E 013°00'1010.3
2017-Jan-21 00:33N 54°45' E 012°43'2210.3
2017-Jan-20 22:22N 54°29' E 012°16'8 9.6
2017-Jan-20 21:32N 54°24' E 012°05'29 9.6
2017-Jan-20 18:27N 54°05' E 011°26'7 8.3
2017-Jan-20 17:33N 53°58' E 011°22'5 4.9
2017-Jan-20 16:32N 53°54' E 011°27'0 0.0
2017-Jan-20 15:32N 53°54' E 011°27'0 0.0
2017-Jan-20 14:32N 53°54' E 011°27'0 0.0
2017-Jan-20 13:32N 53°54' E 011°27'0 0.0
2017-Jan-20 12:32N 53°54' E 011°27'0 0.0
2017-Jan-20 11:32N 53°54' E 011°27'0 0.0
2017-Jan-20 10:32N 53°54' E 011°27'0 0.0
2017-Jan-20 09:32N 53°54' E 011°27'0 0.0
2017-Jan-20 08:32N 53°54' E 011°27'0 0.0
2017-Jan-20 07:32N 53°54' E 011°27'0 0.0
2017-Jan-20 06:32N 53°54' E 011°27'0 0.0
2017-Jan-20 05:31N 53°54' E 011°27'0 0.0
2017-Jan-20 04:31N 53°54' E 011°27'0 0.0
2017-Jan-20 03:31N 53°54' E 011°27'0 0.0
2017-Jan-20 02:31N 53°54' E 011°27'0 0.0
2017-Jan-20 01:31N 53°54' E 011°27'0 0.0
2017-Jan-20 00:31N 53°54' E 011°27'0 0.0
2017-Jan-19 23:31N 53°54' E 011°27'0 0.0
2017-Jan-19 22:31N 53°54' E 011°27'0 0.0
2017-Jan-19 21:31N 53°54' E 011°27'0 0.0
2017-Jan-19 20:31N 53°54' E 011°27'0 0.0
2017-Jan-19 19:31N 53°54' E 011°27'0 0.0
2017-Jan-19 18:31N 53°54' E 011°27'0 0.0
2017-Jan-19 17:31N 53°54' E 011°27'0 0.0
2017-Jan-19 16:31N 53°54' E 011°27'0 0.0
2017-Jan-19 15:31N 53°54' E 011°27'0 0.0
2017-Jan-19 14:31N 53°54' E 011°27'0 0.0
2017-Jan-19 13:31N 53°54' E 011°27'0 0.0
2017-Jan-19 12:31N 53°54' E 011°27'0 0.0
2017-Jan-19 11:31N 53°54' E 011°27'0 0.0
2017-Jan-19 10:31N 53°54' E 011°27'0 0.0
2017-Jan-19 09:31N 53°54' E 011°27'0 0.0
2017-Jan-19 08:31N 53°54' E 011°27'0 0.0
2017-Jan-19 07:31N 53°54' E 011°27'0 0.4
2017-Jan-19 06:33N 53°54' E 011°27'7 7.5
2017-Jan-19 05:33N 54°01' E 011°21'7 7.3
2017-Jan-19 04:33N 54°08' E 011°25'7 6.6
2017-Jan-19 03:33N 54°14' E 011°30'8 7.6
2017-Jan-19 02:34N 54°19' E 011°41'9 8.5
2017-Jan-19 01:33N 54°23' E 011°53'7 6.9
2017-Jan-19 00:33N 54°26' E 012°04'7 7.5
2017-Jan-18 23:34N 54°31' E 012°12'8 8.2
2017-Jan-18 22:33N 54°38' E 012°20'86 8.5
2017-Jan-18 12:26N 54°39' E 014°48'129 9.3
2017-Jan-17 22:33N 54°58' E 018°29'10 9.2
2017-Jan-17 21:30N 54°57' E 018°46'9 9.6
2017-Jan-17 20:33N 54°53' E 018°60'11 9.6
2017-Jan-17 19:24N 54°49' E 019°18'8 9.5
2017-Jan-17 18:32N 54°46' E 019°31'  
2017-Jan-14 11:13N 54°39' E 019°50'2 0.3
2017-Jan-14 05:29N 54°39' E 019°47'7 7.0
2017-Jan-14 04:33N 54°43' E 019°40'8 7.6
2017-Jan-14 03:33N 54°46' E 019°27'31 7.9
2017-Jan-13 23:33N 54°55' E 018°35'8 8.0
2017-Jan-13 22:33N 54°55' E 018°21'8 7.9
2017-Jan-13 21:33N 54°54' E 018°07'183 8.7
2017-Jan-13 00:33N 54°45' E 012°49'1410.3
2017-Jan-12 23:10N 54°37' E 012°28'710.7
2017-Jan-12 22:32N 54°33' E 012°19'1010.2
2017-Jan-12 21:33N 54°25' E 012°09'1610.7
2017-Jan-12 20:03N 54°26' E 011°41'1711.4
2017-Jan-12 18:33N 54°34' E 011°15'1211.7
2017-Jan-12 17:31N 54°34' E 010°54'1010.8
2017-Jan-12 16:33N 54°33' E 010°36'47 7.5
2017-Jan-12 10:22N 54°10' E 009°27'6 7.5
2017-Jan-12 09:32N 54°06' E 009°20'3 3.2
2017-Jan-12 08:33N 54°03' E 009°18'5 5.4
2017-Jan-12 07:33N 53°58' E 009°15'5 5.4
2017-Jan-12 06:33N 53°54' E 009°09'1 0.7
2017-Jan-12 05:33N 53°53' E 009°09'0 0.0
2017-Jan-12 04:31N 53°53' E 009°09'0 0.1
2017-Jan-12 03:31N 53°53' E 009°10'  

Dump ship's entire track history